sensor_id;sensor_type;location;lat;lon;timestamp;P1;durP1;ratioP1;P2;durP2;ratioP2
54881;SDS011;40775;51.448;4.742;2023-07-02T00:00:18;6.88;;;3.22;;
54881;SDS011;40775;51.448;4.742;2023-07-02T00:02:45;8.15;;;3.13;;
54881;SDS011;40775;51.448;4.742;2023-07-02T00:05:12;7.50;;;3.33;;
54881;SDS011;40775;51.448;4.742;2023-07-02T00:07:39;6.70;;;3.67;;
54881;SDS011;40775;51.448;4.742;2023-07-02T00:10:07;6.95;;;3.55;;
54881;SDS011;40775;51.448;4.742;2023-07-02T00:12:34;8.18;;;4.20;;
54881;SDS011;40775;51.448;4.742;2023-07-02T00:15:01;9.52;;;3.50;;
54881;SDS011;40775;51.448;4.742;2023-07-02T00:17:29;6.35;;;3.55;;
54881;SDS011;40775;51.448;4.742;2023-07-02T00:19:56;6.72;;;3.28;;
54881;SDS011;40775;51.448;4.742;2023-07-02T00:22:29;9.00;;;4.43;;
54881;SDS011;40775;51.448;4.742;2023-07-02T00:25:02;8.45;;;3.75;;
54881;SDS011;40775;51.448;4.742;2023-07-02T00:27:29;9.75;;;4.25;;
54881;SDS011;40775;51.448;4.742;2023-07-02T00:29:58;12.90;;;4.97;;
54881;SDS011;40775;51.448;4.742;2023-07-02T00:32:25;8.95;;;4.38;;
54881;SDS011;40775;51.448;4.742;2023-07-02T00:34:52;8.23;;;3.88;;
54881;SDS011;40775;51.448;4.742;2023-07-02T00:37:20;11.57;;;4.68;;
54881;SDS011;40775;51.448;4.742;2023-07-02T00:39:49;8.18;;;4.25;;
54881;SDS011;40775;51.448;4.742;2023-07-02T00:42:16;10.38;;;5.22;;
54881;SDS011;40775;51.448;4.742;2023-07-02T00:44:44;7.72;;;4.05;;
54881;SDS011;40775;51.448;4.742;2023-07-02T00:47:13;8.00;;;4.70;;
54881;SDS011;40775;51.448;4.742;2023-07-02T00:49:40;10.70;;;5.45;;
54881;SDS011;40775;51.448;4.742;2023-07-02T00:52:07;7.97;;;3.22;;
54881;SDS011;40775;51.448;4.742;2023-07-02T00:54:34;11.27;;;5.88;;
54881;SDS011;40775;51.448;4.742;2023-07-02T00:57:02;9.57;;;4.97;;
54881;SDS011;40775;51.448;4.742;2023-07-02T00:59:30;12.00;;;6.07;;
54881;SDS011;40775;51.448;4.742;2023-07-02T01:02:00;7.78;;;4.55;;
54881;SDS011;40775;51.448;4.742;2023-07-02T01:04:28;9.57;;;5.45;;
54881;SDS011;40775;51.448;4.742;2023-07-02T01:06:55;10.05;;;5.55;;
54881;SDS011;40775;51.448;4.742;2023-07-02T01:09:23;12.32;;;5.97;;
54881;SDS011;40775;51.448;4.742;2023-07-02T01:11:57;10.38;;;5.60;;
54881;SDS011;40775;51.448;4.742;2023-07-02T01:14:32;8.30;;;5.00;;
54881;SDS011;40775;51.448;4.742;2023-07-02T01:17:05;9.70;;;5.30;;
54881;SDS011;40775;51.448;4.742;2023-07-02T01:19:42;14.60;;;6.38;;
54881;SDS011;40775;51.448;4.742;2023-07-02T01:22:18;10.73;;;4.93;;
54881;SDS011;40775;51.448;4.742;2023-07-02T01:24:51;10.82;;;5.90;;
54881;SDS011;40775;51.448;4.742;2023-07-02T01:27:19;12.95;;;6.18;;
54881;SDS011;40775;51.448;4.742;2023-07-02T01:29:47;12.07;;;5.57;;
54881;SDS011;40775;51.448;4.742;2023-07-02T01:32:17;11.43;;;5.88;;
54881;SDS011;40775;51.448;4.742;2023-07-02T01:34:45;10.82;;;5.63;;
54881;SDS011;40775;51.448;4.742;2023-07-02T01:37:15;10.50;;;5.95;;
54881;SDS011;40775;51.448;4.742;2023-07-02T01:39:46;14.32;;;6.82;;
54881;SDS011;40775;51.448;4.742;2023-07-02T01:42:17;11.93;;;6.53;;
54881;SDS011;40775;51.448;4.742;2023-07-02T01:44:46;11.18;;;5.90;;
54881;SDS011;40775;51.448;4.742;2023-07-02T01:47:17;11.48;;;6.25;;
54881;SDS011;40775;51.448;4.742;2023-07-02T01:49:50;11.15;;;6.05;;
54881;SDS011;40775;51.448;4.742;2023-07-02T01:52:17;12.60;;;6.35;;
54881;SDS011;40775;51.448;4.742;2023-07-02T01:54:45;12.57;;;6.28;;
54881;SDS011;40775;51.448;4.742;2023-07-02T01:57:12;11.60;;;5.88;;
54881;SDS011;40775;51.448;4.742;2023-07-02T01:59:40;8.80;;;5.95;;
54881;SDS011;40775;51.448;4.742;2023-07-02T02:02:06;14.82;;;6.75;;
54881;SDS011;40775;51.448;4.742;2023-07-02T02:04:34;13.43;;;6.97;;
54881;SDS011;40775;51.448;4.742;2023-07-02T02:07:02;10.68;;;6.15;;
54881;SDS011;40775;51.448;4.742;2023-07-02T02:09:29;14.30;;;7.25;;
54881;SDS011;40775;51.448;4.742;2023-07-02T02:11:58;11.73;;;6.43;;
54881;SDS011;40775;51.448;4.742;2023-07-02T02:14:26;12.93;;;7.15;;
54881;SDS011;40775;51.448;4.742;2023-07-02T02:16:53;11.10;;;5.75;;
54881;SDS011;40775;51.448;4.742;2023-07-02T02:19:21;9.90;;;5.38;;
54881;SDS011;40775;51.448;4.742;2023-07-02T02:21:48;14.68;;;6.60;;
54881;SDS011;40775;51.448;4.742;2023-07-02T02:24:15;10.38;;;6.00;;
54881;SDS011;40775;51.448;4.742;2023-07-02T02:26:42;12.68;;;5.80;;
54881;SDS011;40775;51.448;4.742;2023-07-02T02:29:09;10.77;;;5.55;;
54881;SDS011;40775;51.448;4.742;2023-07-02T02:31:36;11.60;;;5.78;;
54881;SDS011;40775;51.448;4.742;2023-07-02T02:34:03;12.25;;;5.95;;
54881;SDS011;40775;51.448;4.742;2023-07-02T02:36:30;9.60;;;5.47;;
54881;SDS011;40775;51.448;4.742;2023-07-02T02:39:01;12.05;;;6.70;;
54881;SDS011;40775;51.448;4.742;2023-07-02T02:41:31;12.65;;;6.05;;
54881;SDS011;40775;51.448;4.742;2023-07-02T02:43:58;14.52;;;5.88;;
54881;SDS011;40775;51.448;4.742;2023-07-02T02:46:25;10.60;;;5.78;;
54881;SDS011;40775;51.448;4.742;2023-07-02T02:48:52;10.13;;;5.25;;
54881;SDS011;40775;51.448;4.742;2023-07-02T02:51:19;10.95;;;5.93;;
54881;SDS011;40775;51.448;4.742;2023-07-02T02:53:47;10.60;;;5.43;;
54881;SDS011;40775;51.448;4.742;2023-07-02T02:56:13;9.88;;;5.75;;
54881;SDS011;40775;51.448;4.742;2023-07-02T02:58:41;11.05;;;5.20;;
54881;SDS011;40775;51.448;4.742;2023-07-02T03:01:08;13.23;;;5.88;;
54881;SDS011;40775;51.448;4.742;2023-07-02T03:03:38;13.73;;;5.25;;
54881;SDS011;40775;51.448;4.742;2023-07-02T03:06:15;10.38;;;5.22;;
54881;SDS011;40775;51.448;4.742;2023-07-02T03:08:42;14.50;;;6.28;;
54881;SDS011;40775;51.448;4.742;2023-07-02T03:11:10;10.27;;;4.85;;
54881;SDS011;40775;51.448;4.742;2023-07-02T03:13:37;9.95;;;5.35;;
54881;SDS011;40775;51.448;4.742;2023-07-02T03:16:04;10.75;;;4.13;;
54881;SDS011;40775;51.448;4.742;2023-07-02T03:18:32;10.55;;;4.65;;
54881;SDS011;40775;51.448;4.742;2023-07-02T03:20:59;11.75;;;5.85;;
54881;SDS011;40775;51.448;4.742;2023-07-02T03:23:26;8.98;;;4.70;;
54881;SDS011;40775;51.448;4.742;2023-07-02T03:25:53;8.27;;;4.70;;
54881;SDS011;40775;51.448;4.742;2023-07-02T03:28:20;8.30;;;4.82;;
54881;SDS011;40775;51.448;4.742;2023-07-02T03:30:47;11.88;;;4.45;;
54881;SDS011;40775;51.448;4.742;2023-07-02T03:33:15;8.75;;;4.55;;
54881;SDS011;40775;51.448;4.742;2023-07-02T03:35:44;7.72;;;4.43;;
54881;SDS011;40775;51.448;4.742;2023-07-02T03:38:11;11.20;;;5.25;;
54881;SDS011;40775;51.448;4.742;2023-07-02T03:40:38;9.07;;;4.63;;
54881;SDS011;40775;51.448;4.742;2023-07-02T03:43:06;8.88;;;4.38;;
54881;SDS011;40775;51.448;4.742;2023-07-02T03:45:33;9.60;;;4.47;;
54881;SDS011;40775;51.448;4.742;2023-07-02T03:48:00;8.93;;;3.80;;
54881;SDS011;40775;51.448;4.742;2023-07-02T03:50:27;6.68;;;3.55;;
54881;SDS011;40775;51.448;4.742;2023-07-02T03:52:54;9.65;;;3.80;;
54881;SDS011;40775;51.448;4.742;2023-07-02T03:55:21;7.93;;;4.35;;
54881;SDS011;40775;51.448;4.742;2023-07-02T03:57:48;10.15;;;3.90;;
54881;SDS011;40775;51.448;4.742;2023-07-02T04:00:15;6.30;;;3.38;;
54881;SDS011;40775;51.448;4.742;2023-07-02T04:02:42;6.75;;;3.08;;
54881;SDS011;40775;51.448;4.742;2023-07-02T04:05:10;8.43;;;4.72;;
54881;SDS011;40775;51.448;4.742;2023-07-02T04:07:37;9.52;;;3.72;;
54881;SDS011;40775;51.448;4.742;2023-07-02T04:10:05;8.48;;;3.63;;
54881;SDS011;40775;51.448;4.742;2023-07-02T04:12:33;7.65;;;3.63;;
54881;SDS011;40775;51.448;4.742;2023-07-02T04:15:00;9.60;;;3.63;;
54881;SDS011;40775;51.448;4.742;2023-07-02T04:17:29;6.93;;;3.30;;
54881;SDS011;40775;51.448;4.742;2023-07-02T04:20:02;8.68;;;4.15;;
54881;SDS011;40775;51.448;4.742;2023-07-02T04:22:30;6.95;;;3.40;;
54881;SDS011;40775;51.448;4.742;2023-07-02T04:24:57;6.40;;;2.97;;
54881;SDS011;40775;51.448;4.742;2023-07-02T04:27:28;8.50;;;3.70;;
54881;SDS011;40775;51.448;4.742;2023-07-02T04:30:16;6.45;;;3.30;;
54881;SDS011;40775;51.448;4.742;2023-07-02T04:46:40;6.10;;;3.35;;
54881;SDS011;40775;51.448;4.742;2023-07-02T04:49:09;6.30;;;3.08;;
54881;SDS011;40775;51.448;4.742;2023-07-02T04:51:36;11.93;;;3.67;;
54881;SDS011;40775;51.448;4.742;2023-07-02T04:54:04;7.47;;;3.45;;
54881;SDS011;40775;51.448;4.742;2023-07-02T04:56:31;6.32;;;2.97;;
54881;SDS011;40775;51.448;4.742;2023-07-02T04:59:00;7.15;;;3.40;;
54881;SDS011;40775;51.448;4.742;2023-07-02T05:01:28;11.05;;;3.85;;
54881;SDS011;40775;51.448;4.742;2023-07-02T05:03:55;9.63;;;3.85;;
54881;SDS011;40775;51.448;4.742;2023-07-02T05:06:22;5.95;;;2.88;;
54881;SDS011;40775;51.448;4.742;2023-07-02T05:08:49;6.75;;;2.97;;
54881;SDS011;40775;51.448;4.742;2023-07-02T05:11:19;6.28;;;3.17;;
54881;SDS011;40775;51.448;4.742;2023-07-02T05:13:46;7.97;;;3.85;;
54881;SDS011;40775;51.448;4.742;2023-07-02T05:16:13;7.30;;;3.92;;
54881;SDS011;40775;51.448;4.742;2023-07-02T05:18:41;6.57;;;2.92;;
54881;SDS011;40775;51.448;4.742;2023-07-02T05:21:11;6.65;;;3.22;;
54881;SDS011;40775;51.448;4.742;2023-07-02T05:23:38;6.88;;;3.13;;
54881;SDS011;40775;51.448;4.742;2023-07-02T05:26:05;5.75;;;3.13;;
54881;SDS011;40775;51.448;4.742;2023-07-02T05:28:32;6.30;;;3.00;;
54881;SDS011;40775;51.448;4.742;2023-07-02T05:30:59;6.50;;;3.33;;
54881;SDS011;40775;51.448;4.742;2023-07-02T05:33:29;7.82;;;3.25;;
54881;SDS011;40775;51.448;4.742;2023-07-02T05:35:59;8.43;;;3.17;;
54881;SDS011;40775;51.448;4.742;2023-07-02T05:38:26;6.13;;;2.70;;
54881;SDS011;40775;51.448;4.742;2023-07-02T05:40:53;5.85;;;3.10;;
54881;SDS011;40775;51.448;4.742;2023-07-02T05:43:20;7.00;;;2.95;;
54881;SDS011;40775;51.448;4.742;2023-07-02T05:45:50;6.32;;;2.78;;
54881;SDS011;40775;51.448;4.742;2023-07-02T05:48:18;5.95;;;2.75;;
54881;SDS011;40775;51.448;4.742;2023-07-02T05:50:45;12.10;;;3.10;;
54881;SDS011;40775;51.448;4.742;2023-07-02T05:53:13;4.88;;;3.00;;
54881;SDS011;40775;51.448;4.742;2023-07-02T05:55:41;4.53;;;2.28;;
54881;SDS011;40775;51.448;4.742;2023-07-02T05:58:10;6.70;;;3.65;;
54881;SDS011;40775;51.448;4.742;2023-07-02T06:00:39;7.28;;;3.30;;
54881;SDS011;40775;51.448;4.742;2023-07-02T06:03:07;6.82;;;3.00;;
54881;SDS011;40775;51.448;4.742;2023-07-02T06:05:37;6.28;;;3.25;;
54881;SDS011;40775;51.448;4.742;2023-07-02T06:08:04;7.07;;;2.92;;
54881;SDS011;40775;51.448;4.742;2023-07-02T06:10:34;6.13;;;2.92;;
54881;SDS011;40775;51.448;4.742;2023-07-02T06:13:01;6.07;;;2.65;;
54881;SDS011;40775;51.448;4.742;2023-07-02T06:15:28;4.57;;;2.42;;
54881;SDS011;40775;51.448;4.742;2023-07-02T06:17:57;4.95;;;2.53;;
54881;SDS011;40775;51.448;4.742;2023-07-02T06:20:24;6.43;;;2.83;;
54881;SDS011;40775;51.448;4.742;2023-07-02T06:22:56;6.13;;;2.55;;
54881;SDS011;40775;51.448;4.742;2023-07-02T06:27:53;5.50;;;2.72;;
54881;SDS011;40775;51.448;4.742;2023-07-02T06:30:24;8.40;;;2.92;;
54881;SDS011;40775;51.448;4.742;2023-07-02T06:32:53;6.43;;;2.63;;
54881;SDS011;40775;51.448;4.742;2023-07-02T06:35:21;4.22;;;2.20;;
54881;SDS011;40775;51.448;4.742;2023-07-02T06:37:51;5.80;;;2.40;;
54881;SDS011;40775;51.448;4.742;2023-07-02T06:40:18;7.00;;;2.53;;
54881;SDS011;40775;51.448;4.742;2023-07-02T06:42:48;7.03;;;2.25;;
54881;SDS011;40775;51.448;4.742;2023-07-02T06:45:17;8.13;;;2.80;;
54881;SDS011;40775;51.448;4.742;2023-07-02T06:47:44;5.03;;;2.65;;
54881;SDS011;40775;51.448;4.742;2023-07-02T06:50:11;7.57;;;3.00;;
54881;SDS011;40775;51.448;4.742;2023-07-02T06:52:41;6.43;;;2.75;;
54881;SDS011;40775;51.448;4.742;2023-07-02T06:55:08;5.50;;;2.40;;
54881;SDS011;40775;51.448;4.742;2023-07-02T06:57:41;5.63;;;2.67;;
54881;SDS011;40775;51.448;4.742;2023-07-02T07:00:14;6.53;;;2.33;;
54881;SDS011;40775;51.448;4.742;2023-07-02T07:02:43;5.38;;;2.38;;
54881;SDS011;40775;51.448;4.742;2023-07-02T07:05:10;7.28;;;2.60;;
54881;SDS011;40775;51.448;4.742;2023-07-02T07:07:37;7.70;;;3.05;;
54881;SDS011;40775;51.448;4.742;2023-07-02T07:10:13;5.82;;;2.42;;
54881;SDS011;40775;51.448;4.742;2023-07-02T07:12:40;5.80;;;2.63;;
54881;SDS011;40775;51.448;4.742;2023-07-02T07:15:07;5.10;;;2.67;;
54881;SDS011;40775;51.448;4.742;2023-07-02T07:17:34;7.47;;;2.67;;
54881;SDS011;40775;51.448;4.742;2023-07-02T07:20:02;4.85;;;2.38;;
54881;SDS011;40775;51.448;4.742;2023-07-02T07:22:31;5.90;;;2.38;;
54881;SDS011;40775;51.448;4.742;2023-07-02T07:24:59;6.03;;;2.80;;
54881;SDS011;40775;51.448;4.742;2023-07-02T07:27:29;4.72;;;2.20;;
54881;SDS011;40775;51.448;4.742;2023-07-02T07:29:56;7.20;;;2.60;;
54881;SDS011;40775;51.448;4.742;2023-07-02T07:32:23;4.63;;;2.58;;
54881;SDS011;40775;51.448;4.742;2023-07-02T07:34:50;6.97;;;2.58;;
54881;SDS011;40775;51.448;4.742;2023-07-02T07:37:18;5.85;;;2.20;;
54881;SDS011;40775;51.448;4.742;2023-07-02T07:39:45;5.20;;;2.30;;
54881;SDS011;40775;51.448;4.742;2023-07-02T07:42:14;4.75;;;2.05;;
54881;SDS011;40775;51.448;4.742;2023-07-02T07:44:44;4.55;;;1.95;;
54881;SDS011;40775;51.448;4.742;2023-07-02T07:47:12;4.60;;;1.98;;
54881;SDS011;40775;51.448;4.742;2023-07-02T07:49:42;6.82;;;2.67;;
54881;SDS011;40775;51.448;4.742;2023-07-02T07:52:09;4.55;;;2.53;;
54881;SDS011;40775;51.448;4.742;2023-07-02T07:54:36;5.78;;;2.00;;
54881;SDS011;40775;51.448;4.742;2023-07-02T07:57:03;6.53;;;2.47;;
54881;SDS011;40775;51.448;4.742;2023-07-02T07:59:31;5.03;;;2.40;;
54881;SDS011;40775;51.448;4.742;2023-07-02T08:01:58;5.60;;;2.25;;
54881;SDS011;40775;51.448;4.742;2023-07-02T08:04:31;6.30;;;2.38;;
54881;SDS011;40775;51.448;4.742;2023-07-02T08:06:59;5.63;;;2.55;;
54881;SDS011;40775;51.448;4.742;2023-07-02T08:09:26;6.00;;;2.35;;
54881;SDS011;40775;51.448;4.742;2023-07-02T08:11:53;3.92;;;1.95;;
54881;SDS011;40775;51.448;4.742;2023-07-02T08:14:21;6.22;;;2.25;;
54881;SDS011;40775;51.448;4.742;2023-07-02T08:16:49;5.45;;;2.05;;
54881;SDS011;40775;51.448;4.742;2023-07-02T08:19:17;6.10;;;2.42;;
54881;SDS011;40775;51.448;4.742;2023-07-02T08:21:46;4.57;;;2.10;;
54881;SDS011;40775;51.448;4.742;2023-07-02T08:24:14;4.70;;;2.00;;
54881;SDS011;40775;51.448;4.742;2023-07-02T08:26:44;6.63;;;2.75;;
54881;SDS011;40775;51.448;4.742;2023-07-02T08:29:11;5.05;;;2.25;;
54881;SDS011;40775;51.448;4.742;2023-07-02T08:31:38;5.07;;;2.33;;
54881;SDS011;40775;51.448;4.742;2023-07-02T08:34:07;5.65;;;2.17;;
54881;SDS011;40775;51.448;4.742;2023-07-02T08:36:34;4.75;;;2.20;;
54881;SDS011;40775;51.448;4.742;2023-07-02T08:39:04;4.75;;;2.08;;
54881;SDS011;40775;51.448;4.742;2023-07-02T08:41:43;4.85;;;2.70;;
54881;SDS011;40775;51.448;4.742;2023-07-02T08:44:16;3.33;;;1.63;;
54881;SDS011;40775;51.448;4.742;2023-07-02T08:46:49;7.13;;;2.05;;
54881;SDS011;40775;51.448;4.742;2023-07-02T08:49:19;6.50;;;2.30;;
54881;SDS011;40775;51.448;4.742;2023-07-02T08:51:46;4.93;;;1.98;;
54881;SDS011;40775;51.448;4.742;2023-07-02T08:54:14;5.00;;;2.13;;
54881;SDS011;40775;51.448;4.742;2023-07-02T08:56:43;5.03;;;1.85;;
54881;SDS011;40775;51.448;4.742;2023-07-02T08:59:12;4.43;;;1.88;;
54881;SDS011;40775;51.448;4.742;2023-07-02T09:01:49;3.42;;;1.90;;
54881;SDS011;40775;51.448;4.742;2023-07-02T09:07:12;4.95;;;2.08;;
54881;SDS011;40775;51.448;4.742;2023-07-02T09:09:46;4.78;;;2.08;;
54881;SDS011;40775;51.448;4.742;2023-07-02T09:15:03;4.55;;;2.08;;
54881;SDS011;40775;51.448;4.742;2023-07-02T09:17:33;5.10;;;1.70;;
54881;SDS011;40775;51.448;4.742;2023-07-02T09:20:04;4.32;;;2.20;;
54881;SDS011;40775;51.448;4.742;2023-07-02T09:22:35;7.78;;;2.25;;
54881;SDS011;40775;51.448;4.742;2023-07-02T09:25:04;4.93;;;2.33;;
54881;SDS011;40775;51.448;4.742;2023-07-02T09:27:38;4.75;;;2.22;;
54881;SDS011;40775;51.448;4.742;2023-07-02T09:30:09;2.90;;;1.73;;
54881;SDS011;40775;51.448;4.742;2023-07-02T09:32:42;4.68;;;2.25;;
54881;SDS011;40775;51.448;4.742;2023-07-02T09:35:11;4.35;;;2.10;;
54881;SDS011;40775;51.448;4.742;2023-07-02T09:37:42;6.07;;;2.05;;
54881;SDS011;40775;51.448;4.742;2023-07-02T09:40:15;6.38;;;2.47;;
54881;SDS011;40775;51.448;4.742;2023-07-02T09:42:44;4.93;;;2.30;;
54881;SDS011;40775;51.448;4.742;2023-07-02T09:45:21;5.72;;;2.25;;
54881;SDS011;40775;51.448;4.742;2023-07-02T09:47:51;4.57;;;2.55;;
54881;SDS011;40775;51.448;4.742;2023-07-02T09:50:22;5.93;;;2.40;;
54881;SDS011;40775;51.448;4.742;2023-07-02T09:52:49;5.70;;;2.10;;
54881;SDS011;40775;51.448;4.742;2023-07-02T09:55:17;4.15;;;1.98;;
54881;SDS011;40775;51.448;4.742;2023-07-02T09:57:46;4.22;;;2.03;;
54881;SDS011;40775;51.448;4.742;2023-07-02T10:00:14;5.18;;;2.33;;
54881;SDS011;40775;51.448;4.742;2023-07-02T10:02:48;6.57;;;2.53;;
54881;SDS011;40775;51.448;4.742;2023-07-02T10:05:25;5.63;;;2.10;;
54881;SDS011;40775;51.448;4.742;2023-07-02T10:08:17;5.10;;;2.40;;
54881;SDS011;40775;51.448;4.742;2023-07-02T10:10:47;7.47;;;3.53;;
54881;SDS011;40775;51.448;4.742;2023-07-02T10:13:27;5.90;;;2.50;;
54881;SDS011;40775;51.448;4.742;2023-07-02T10:16:03;4.85;;;2.35;;
54881;SDS011;40775;51.448;4.742;2023-07-02T10:18:31;4.05;;;1.92;;
54881;SDS011;40775;51.448;4.742;2023-07-02T10:20:59;6.10;;;2.42;;
54881;SDS011;40775;51.448;4.742;2023-07-02T10:23:35;7.03;;;2.42;;
54881;SDS011;40775;51.448;4.742;2023-07-02T10:26:14;4.95;;;2.13;;
54881;SDS011;40775;51.448;4.742;2023-07-02T10:28:57;5.57;;;2.58;;
54881;SDS011;40775;51.448;4.742;2023-07-02T10:31:25;9.48;;;2.75;;
54881;SDS011;40775;51.448;4.742;2023-07-02T10:33:53;5.30;;;2.70;;
54881;SDS011;40775;51.448;4.742;2023-07-02T10:36:21;5.78;;;2.40;;
54881;SDS011;40775;51.448;4.742;2023-07-02T10:38:50;5.32;;;2.65;;
54881;SDS011;40775;51.448;4.742;2023-07-02T10:41:30;5.75;;;2.30;;
54881;SDS011;40775;51.448;4.742;2023-07-02T10:44:07;4.40;;;2.35;;
54881;SDS011;40775;51.448;4.742;2023-07-02T10:46:47;7.00;;;2.92;;
54881;SDS011;40775;51.448;4.742;2023-07-02T10:49:20;8.23;;;2.30;;
54881;SDS011;40775;51.448;4.742;2023-07-02T10:51:59;10.25;;;3.42;;
54881;SDS011;40775;51.448;4.742;2023-07-02T10:54:45;5.90;;;2.78;;
54881;SDS011;40775;51.448;4.742;2023-07-02T10:57:21;6.13;;;3.03;;
54881;SDS011;40775;51.448;4.742;2023-07-02T10:59:49;7.85;;;3.13;;
54881;SDS011;40775;51.448;4.742;2023-07-02T11:02:18;6.13;;;2.60;;
54881;SDS011;40775;51.448;4.742;2023-07-02T11:04:49;8.50;;;2.70;;
54881;SDS011;40775;51.448;4.742;2023-07-02T11:07:21;7.60;;;2.72;;
54881;SDS011;40775;51.448;4.742;2023-07-02T11:09:50;5.47;;;2.72;;
54881;SDS011;40775;51.448;4.742;2023-07-02T11:12:22;4.65;;;2.38;;
54881;SDS011;40775;51.448;4.742;2023-07-02T11:15:10;8.05;;;2.70;;
54881;SDS011;40775;51.448;4.742;2023-07-02T11:17:42;7.55;;;2.97;;
54881;SDS011;40775;51.448;4.742;2023-07-02T11:20:10;5.30;;;2.45;;
54881;SDS011;40775;51.448;4.742;2023-07-02T11:22:41;5.45;;;2.40;;
54881;SDS011;40775;51.448;4.742;2023-07-02T11:25:14;4.55;;;2.00;;
54881;SDS011;40775;51.448;4.742;2023-07-02T11:27:49;6.70;;;2.60;;
54881;SDS011;40775;51.448;4.742;2023-07-02T11:30:27;9.57;;;3.10;;
54881;SDS011;40775;51.448;4.742;2023-07-02T11:32:54;7.18;;;2.42;;
54881;SDS011;40775;51.448;4.742;2023-07-02T11:35:22;7.65;;;2.95;;
54881;SDS011;40775;51.448;4.742;2023-07-02T11:38:01;3.72;;;2.05;;
54881;SDS011;40775;51.448;4.742;2023-07-02T11:40:29;4.80;;;2.22;;
54881;SDS011;40775;51.448;4.742;2023-07-02T11:42:59;4.68;;;2.40;;
54881;SDS011;40775;51.448;4.742;2023-07-02T11:45:26;5.10;;;2.33;;
54881;SDS011;40775;51.448;4.742;2023-07-02T11:47:53;4.07;;;1.70;;
54881;SDS011;40775;51.448;4.742;2023-07-02T11:50:20;4.68;;;2.10;;
54881;SDS011;40775;51.448;4.742;2023-07-02T11:52:54;5.18;;;2.65;;
54881;SDS011;40775;51.448;4.742;2023-07-02T11:55:21;5.07;;;1.98;;
54881;SDS011;40775;51.448;4.742;2023-07-02T11:57:51;4.53;;;2.10;;
54881;SDS011;40775;51.448;4.742;2023-07-02T12:00:18;5.75;;;2.28;;
54881;SDS011;40775;51.448;4.742;2023-07-02T12:05:20;8.40;;;2.80;;
54881;SDS011;40775;51.448;4.742;2023-07-02T12:07:48;4.28;;;1.73;;
54881;SDS011;40775;51.448;4.742;2023-07-02T12:10:15;5.03;;;1.65;;
54881;SDS011;40775;51.448;4.742;2023-07-02T12:12:42;4.90;;;1.65;;
54881;SDS011;40775;51.448;4.742;2023-07-02T12:15:09;4.00;;;1.73;;
54881;SDS011;40775;51.448;4.742;2023-07-02T12:17:38;4.93;;;1.92;;
54881;SDS011;40775;51.448;4.742;2023-07-02T12:20:05;7.22;;;2.67;;
54881;SDS011;40775;51.448;4.742;2023-07-02T12:22:34;4.40;;;1.77;;
54881;SDS011;40775;51.448;4.742;2023-07-02T12:25:04;4.93;;;1.60;;
54881;SDS011;40775;51.448;4.742;2023-07-02T12:27:32;4.80;;;1.88;;
54881;SDS011;40775;51.448;4.742;2023-07-02T12:30:02;4.55;;;2.15;;
54881;SDS011;40775;51.448;4.742;2023-07-02T12:32:30;3.22;;;1.42;;
54881;SDS011;40775;51.448;4.742;2023-07-02T12:34:57;5.22;;;1.67;;
54881;SDS011;40775;51.448;4.742;2023-07-02T12:37:24;3.05;;;1.48;;
54881;SDS011;40775;51.448;4.742;2023-07-02T12:39:54;3.20;;;1.75;;
54881;SDS011;40775;51.448;4.742;2023-07-02T12:42:21;4.22;;;1.70;;
54881;SDS011;40775;51.448;4.742;2023-07-02T12:44:48;5.25;;;1.63;;
54881;SDS011;40775;51.448;4.742;2023-07-02T12:47:15;3.55;;;1.27;;
54881;SDS011;40775;51.448;4.742;2023-07-02T12:49:42;5.72;;;1.77;;
54881;SDS011;40775;51.448;4.742;2023-07-02T12:52:10;4.10;;;1.35;;
54881;SDS011;40775;51.448;4.742;2023-07-02T12:54:40;4.53;;;1.60;;
54881;SDS011;40775;51.448;4.742;2023-07-02T12:57:07;3.88;;;1.75;;
54881;SDS011;40775;51.448;4.742;2023-07-02T12:59:37;3.55;;;1.45;;
54881;SDS011;40775;51.448;4.742;2023-07-02T13:02:04;4.93;;;2.00;;
54881;SDS011;40775;51.448;4.742;2023-07-02T13:04:32;4.13;;;2.22;;
54881;SDS011;40775;51.448;4.742;2023-07-02T13:06:59;4.90;;;1.50;;
54881;SDS011;40775;51.448;4.742;2023-07-02T13:09:27;3.05;;;1.48;;
54881;SDS011;40775;51.448;4.742;2023-07-02T13:11:54;5.57;;;1.85;;
54881;SDS011;40775;51.448;4.742;2023-07-02T13:14:21;4.72;;;2.20;;
54881;SDS011;40775;51.448;4.742;2023-07-02T13:16:48;4.82;;;1.75;;
54881;SDS011;40775;51.448;4.742;2023-07-02T13:19:15;6.47;;;2.50;;
54881;SDS011;40775;51.448;4.742;2023-07-02T13:21:42;4.45;;;1.73;;
54881;SDS011;40775;51.448;4.742;2023-07-02T13:24:12;3.97;;;1.90;;
54881;SDS011;40775;51.448;4.742;2023-07-02T13:26:39;3.45;;;1.65;;
54881;SDS011;40775;51.448;4.742;2023-07-02T13:29:09;6.43;;;1.92;;
54881;SDS011;40775;51.448;4.742;2023-07-02T13:31:36;3.67;;;1.88;;
54881;SDS011;40775;51.448;4.742;2023-07-02T13:34:03;4.57;;;1.63;;
54881;SDS011;40775;51.448;4.742;2023-07-02T13:36:32;3.40;;;1.58;;
54881;SDS011;40775;51.448;4.742;2023-07-02T13:39:02;3.50;;;1.58;;
54881;SDS011;40775;51.448;4.742;2023-07-02T13:41:29;4.03;;;1.98;;
54881;SDS011;40775;51.448;4.742;2023-07-02T13:44:08;4.03;;;1.60;;
54881;SDS011;40775;51.448;4.742;2023-07-02T13:46:35;5.22;;;2.13;;
54881;SDS011;40775;51.448;4.742;2023-07-02T13:49:02;4.88;;;1.90;;
54881;SDS011;40775;51.448;4.742;2023-07-02T13:51:35;6.60;;;2.80;;
54881;SDS011;40775;51.448;4.742;2023-07-02T13:54:04;4.70;;;1.85;;
54881;SDS011;40775;51.448;4.742;2023-07-02T13:56:31;6.07;;;1.73;;
54881;SDS011;40775;51.448;4.742;2023-07-02T13:58:59;4.30;;;1.42;;
54881;SDS011;40775;51.448;4.742;2023-07-02T14:01:27;3.60;;;1.65;;
54881;SDS011;40775;51.448;4.742;2023-07-02T14:03:58;3.60;;;1.63;;
54881;SDS011;40775;51.448;4.742;2023-07-02T14:06:26;6.90;;;2.28;;
54881;SDS011;40775;51.448;4.742;2023-07-02T14:08:54;6.47;;;1.77;;
54881;SDS011;40775;51.448;4.742;2023-07-02T14:11:22;5.60;;;2.67;;
54881;SDS011;40775;51.448;4.742;2023-07-02T14:13:50;3.75;;;1.85;;
54881;SDS011;40775;51.448;4.742;2023-07-02T14:16:20;4.45;;;2.25;;
54881;SDS011;40775;51.448;4.742;2023-07-02T14:18:48;4.50;;;1.95;;
54881;SDS011;40775;51.448;4.742;2023-07-02T14:21:15;4.45;;;2.17;;
54881;SDS011;40775;51.448;4.742;2023-07-02T14:23:43;4.85;;;2.15;;
54881;SDS011;40775;51.448;4.742;2023-07-02T14:26:12;5.15;;;1.95;;
54881;SDS011;40775;51.448;4.742;2023-07-02T14:28:43;6.53;;;1.92;;
54881;SDS011;40775;51.448;4.742;2023-07-02T14:31:13;5.60;;;2.03;;
54881;SDS011;40775;51.448;4.742;2023-07-02T14:33:40;3.83;;;2.22;;
54881;SDS011;40775;51.448;4.742;2023-07-02T14:36:07;5.85;;;2.30;;
54881;SDS011;40775;51.448;4.742;2023-07-02T14:38:34;6.97;;;2.38;;
54881;SDS011;40775;51.448;4.742;2023-07-02T14:41:07;7.30;;;2.35;;
54881;SDS011;40775;51.448;4.742;2023-07-02T14:43:34;4.65;;;1.98;;
54881;SDS011;40775;51.448;4.742;2023-07-02T14:46:02;4.65;;;2.08;;
54881;SDS011;40775;51.448;4.742;2023-07-02T14:48:30;3.30;;;2.05;;
54881;SDS011;40775;51.448;4.742;2023-07-02T14:50:58;5.68;;;1.90;;
54881;SDS011;40775;51.448;4.742;2023-07-02T14:53:31;6.43;;;1.98;;
54881;SDS011;40775;51.448;4.742;2023-07-02T14:56:01;4.03;;;1.88;;
54881;SDS011;40775;51.448;4.742;2023-07-02T14:58:31;6.57;;;1.80;;
54881;SDS011;40775;51.448;4.742;2023-07-02T15:00:58;6.22;;;2.63;;
54881;SDS011;40775;51.448;4.742;2023-07-02T15:03:30;7.25;;;2.45;;
54881;SDS011;40775;51.448;4.742;2023-07-02T15:06:08;6.07;;;2.88;;
54881;SDS011;40775;51.448;4.742;2023-07-02T15:08:44;5.82;;;2.65;;
54881;SDS011;40775;51.448;4.742;2023-07-02T15:11:13;5.00;;;1.92;;
54881;SDS011;40775;51.448;4.742;2023-07-02T15:14:04;4.40;;;1.60;;
54881;SDS011;40775;51.448;4.742;2023-07-02T15:16:32;5.07;;;1.65;;
54881;SDS011;40775;51.448;4.742;2023-07-02T15:18:59;4.53;;;1.58;;
54881;SDS011;40775;51.448;4.742;2023-07-02T15:21:26;6.45;;;2.45;;